sensor_id;sensor_type;location;lat;lon;timestamp;temperature;humidity
2024;DHT22;1016;48.770;9.154;2022-12-18T00:00:57;0.50;99.90
2024;DHT22;1016;48.770;9.154;2022-12-18T00:03:23;0.60;99.90
2024;DHT22;1016;48.770;9.154;2022-12-18T00:05:50;0.50;99.90
2024;DHT22;1016;48.770;9.154;2022-12-18T00:08:16;0.50;99.90
2024;DHT22;1016;48.770;9.154;2022-12-18T00:10:42;0.40;99.90
2024;DHT22;1016;48.770;9.154;2022-12-18T00:13:08;0.40;99.90
2024;DHT22;1016;48.770;9.154;2022-12-18T00:15:35;0.40;99.90
2024;DHT22;1016;48.770;9.154;2022-12-18T00:18:00;0.40;99.90
2024;DHT22;1016;48.770;9.154;2022-12-18T00:20:26;0.40;99.90
2024;DHT22;1016;48.770;9.154;2022-12-18T00:22:52;0.50;99.90
2024;DHT22;1016;48.770;9.154;2022-12-18T00:25:18;0.40;99.90
2024;DHT22;1016;48.770;9.154;2022-12-18T00:27:43;0.40;99.90
2024;DHT22;1016;48.770;9.154;2022-12-18T00:30:09;0.30;99.90
2024;DHT22;1016;48.770;9.154;2022-12-18T00:32:35;0.30;99.90
2024;DHT22;1016;48.770;9.154;2022-12-18T00:35:01;0.30;99.90
2024;DHT22;1016;48.770;9.154;2022-12-18T00:37:26;0.40;99.90
2024;DHT22;1016;48.770;9.154;2022-12-18T00:39:51;0.40;99.90
2024;DHT22;1016;48.770;9.154;2022-12-18T00:42:17;0.40;99.90
2024;DHT22;1016;48.770;9.154;2022-12-18T00:45:01;0.30;99.90
2024;DHT22;1016;48.770;9.154;2022-12-18T00:47:26;0.40;99.90
2024;DHT22;1016;48.770;9.154;2022-12-18T00:49:52;0.30;99.90
2024;DHT22;1016;48.770;9.154;2022-12-18T00:52:17;0.30;99.90
2024;DHT22;1016;48.770;9.154;2022-12-18T00:54:43;0.30;99.90
2024;DHT22;1016;48.770;9.154;2022-12-18T00:57:08;0.20;99.90
2024;DHT22;1016;48.770;9.154;2022-12-18T00:59:34;0.20;99.90
2024;DHT22;1016;48.770;9.154;2022-12-18T01:01:59;0.20;99.90
2024;DHT22;1016;48.770;9.154;2022-12-18T01:04:25;0.10;99.90
2024;DHT22;1016;48.770;9.154;2022-12-18T01:06:50;0.20;99.90
2024;DHT22;1016;48.770;9.154;2022-12-18T01:09:16;0.20;99.80
2024;DHT22;1016;48.770;9.154;2022-12-18T01:11:41;0.20;99.90
2024;DHT22;1016;48.770;9.154;2022-12-18T01:14:07;0.20;99.90
2024;DHT22;1016;48.770;9.154;2022-12-18T01:16:32;0.10;99.80
2024;DHT22;1016;48.770;9.154;2022-12-18T01:18:58;0.10;99.70
2024;DHT22;1016;48.770;9.154;2022-12-18T01:21:23;0.10;99.60
2024;DHT22;1016;48.770;9.154;2022-12-18T01:23:56;0.10;99.40
2024;DHT22;1016;48.770;9.154;2022-12-18T01:26:22;0.00;99.70
2024;DHT22;1016;48.770;9.154;2022-12-18T01:28:48;0.00;99.80
2024;DHT22;1016;48.770;9.154;2022-12-18T01:31:26;0.00;99.80
2024;DHT22;1016;48.770;9.154;2022-12-18T01:33:53;-0.10;99.70
2024;DHT22;1016;48.770;9.154;2022-12-18T01:38:46;-0.10;99.80
2024;DHT22;1016;48.770;9.154;2022-12-18T01:41:13;-0.10;99.60
2024;DHT22;1016;48.770;9.154;2022-12-18T01:43:51;-0.10;99.60
2024;DHT22;1016;48.770;9.154;2022-12-18T01:46:19;-0.10;99.70
2024;DHT22;1016;48.770;9.154;2022-12-18T01:48:47;-0.10;99.90
2024;DHT22;1016;48.770;9.154;2022-12-18T01:51:14;-0.10;99.90
2024;DHT22;1016;48.770;9.154;2022-12-18T01:53:41;-0.10;99.90
2024;DHT22;1016;48.770;9.154;2022-12-18T01:56:08;-0.10;99.90
2024;DHT22;1016;48.770;9.154;2022-12-18T02:01:18;-0.10;99.90
2024;DHT22;1016;48.770;9.154;2022-12-18T02:03:45;-0.10;99.90
2024;DHT22;1016;48.770;9.154;2022-12-18T02:06:46;0.00;99.90
2024;DHT22;1016;48.770;9.154;2022-12-18T02:09:20;0.00;99.90
2024;DHT22;1016;48.770;9.154;2022-12-18T02:12:00;0.00;99.90
2024;DHT22;1016;48.770;9.154;2022-12-18T02:17:18;0.00;99.80
2024;DHT22;1016;48.770;9.154;2022-12-18T02:19:55;-0.10;99.80
2024;DHT22;1016;48.770;9.154;2022-12-18T02:28:18;0.00;99.70
2024;DHT22;1016;48.770;9.154;2022-12-18T02:30:47;0.00;99.70
2024;DHT22;1016;48.770;9.154;2022-12-18T02:33:15;0.00;99.40
2024;DHT22;1016;48.770;9.154;2022-12-18T02:35:42;0.00;98.90
2024;DHT22;1016;48.770;9.154;2022-12-18T02:38:09;0.00;98.80
2024;DHT22;1016;48.770;9.154;2022-12-18T02:40:35;0.00;98.70
2024;DHT22;1016;48.770;9.154;2022-12-18T02:43:09;0.00;98.80
2024;DHT22;1016;48.770;9.154;2022-12-18T02:45:35;-0.10;98.70
2024;DHT22;1016;48.770;9.154;2022-12-18T02:48:01;-0.10;98.50
2024;DHT22;1016;48.770;9.154;2022-12-18T02:50:35;-0.20;98.50
2024;DHT22;1016;48.770;9.154;2022-12-18T02:53:13;-0.20;98.60
2024;DHT22;1016;48.770;9.154;2022-12-18T02:58:59;-0.20;98.00
2024;DHT22;1016;48.770;9.154;2022-12-18T03:01:55;-0.30;98.20
2024;DHT22;1016;48.770;9.154;2022-12-18T03:04:30;-0.30;97.90
2024;DHT22;1016;48.770;9.154;2022-12-18T03:06:59;-0.30;98.10
2024;DHT22;1016;48.770;9.154;2022-12-18T03:09:32;-0.30;98.20
2024;DHT22;1016;48.770;9.154;2022-12-18T03:12:10;-0.20;98.50
2024;DHT22;1016;48.770;9.154;2022-12-18T03:15:28;-0.20;98.20
2024;DHT22;1016;48.770;9.154;2022-12-18T03:17:59;-0.20;98.20
2024;DHT22;1016;48.770;9.154;2022-12-18T03:20:29;-0.20;98.10
2024;DHT22;1016;48.770;9.154;2022-12-18T03:23:02;-0.10;98.20
2024;DHT22;1016;48.770;9.154;2022-12-18T03:25:30;-0.10;98.10
2024;DHT22;1016;48.770;9.154;2022-12-18T03:27:58;-0.20;98.00
2024;DHT22;1016;48.770;9.154;2022-12-18T03:30:28;-0.20;98.00
2024;DHT22;1016;48.770;9.154;2022-12-18T03:33:09;-0.30;97.50
2024;DHT22;1016;48.770;9.154;2022-12-18T03:35:38;-0.30;97.70
2024;DHT22;1016;48.770;9.154;2022-12-18T03:38:06;-0.30;97.30
2024;DHT22;1016;48.770;9.154;2022-12-18T03:47:15;-0.60;97.00
2024;DHT22;1016;48.770;9.154;2022-12-18T03:54:45;-0.80;96.60
2024;DHT22;1016;48.770;9.154;2022-12-18T03:57:20;-0.80;96.70
2024;DHT22;1016;48.770;9.154;2022-12-18T03:59:49;-0.80;96.60
2024;DHT22;1016;48.770;9.154;2022-12-18T04:02:16;-0.90;96.70
2024;DHT22;1016;48.770;9.154;2022-12-18T04:04:43;-0.90;99.20
2024;DHT22;1016;48.770;9.154;2022-12-18T04:07:10;-0.80;99.90
2024;DHT22;1016;48.770;9.154;2022-12-18T04:09:38;-0.80;99.90
2024;DHT22;1016;48.770;9.154;2022-12-18T04:12:05;-0.80;99.90
2024;DHT22;1016;48.770;9.154;2022-12-18T04:14:31;-0.70;99.80
2024;DHT22;1016;48.770;9.154;2022-12-18T04:17:01;-0.70;99.10
2024;DHT22;1016;48.770;9.154;2022-12-18T04:19:26;-0.70;98.50
2024;DHT22;1016;48.770;9.154;2022-12-18T04:21:52;-0.70;97.90
2024;DHT22;1016;48.770;9.154;2022-12-18T04:24:17;-0.70;98.90
2024;DHT22;1016;48.770;9.154;2022-12-18T04:26:43;-0.70;98.00
2024;DHT22;1016;48.770;9.154;2022-12-18T04:29:08;-0.80;98.70
2024;DHT22;1016;48.770;9.154;2022-12-18T04:31:34;-0.70;98.90
2024;DHT22;1016;48.770;9.154;2022-12-18T04:33:59;-0.80;99.50
2024;DHT22;1016;48.770;9.154;2022-12-18T04:36:26;-0.80;99.90
2024;DHT22;1016;48.770;9.154;2022-12-18T04:38:51;-0.80;99.90
2024;DHT22;1016;48.770;9.154;2022-12-18T04:41:17;-0.80;99.90
2024;DHT22;1016;48.770;9.154;2022-12-18T04:43:42;-0.80;99.90
2024;DHT22;1016;48.770;9.154;2022-12-18T04:46:08;-0.90;99.90
2024;DHT22;1016;48.770;9.154;2022-12-18T04:48:34;-1.00;99.90
2024;DHT22;1016;48.770;9.154;2022-12-18T04:50:59;-1.00;97.00
2024;DHT22;1016;48.770;9.154;2022-12-18T04:53:25;-1.00;98.40
2024;DHT22;1016;48.770;9.154;2022-12-18T04:55:50;-0.90;99.90
2024;DHT22;1016;48.770;9.154;2022-12-18T04:58:16;-0.50;99.90
2024;DHT22;1016;48.770;9.154;2022-12-18T05:00:42;-0.90;99.90
2024;DHT22;1016;48.770;9.154;2022-12-18T05:03:07;-1.10;94.80
2024;DHT22;1016;48.770;9.154;2022-12-18T05:05:34;-1.00;95.00
2024;DHT22;1016;48.770;9.154;2022-12-18T05:08:00;-1.00;94.90
2024;DHT22;1016;48.770;9.154;2022-12-18T05:10:25;-1.00;95.20
2024;DHT22;1016;48.770;9.154;2022-12-18T05:12:51;-1.10;95.00
2024;DHT22;1016;48.770;9.154;2022-12-18T05:15:30;-1.10;95.30
2024;DHT22;1016;48.770;9.154;2022-12-18T05:17:56;-1.10;95.20
2024;DHT22;1016;48.770;9.154;2022-12-18T05:20:22;-1.10;95.40
2024;DHT22;1016;48.770;9.154;2022-12-18T05:22:48;-1.10;95.20
2024;DHT22;1016;48.770;9.154;2022-12-18T05:25:13;-1.10;95.20
2024;DHT22;1016;48.770;9.154;2022-12-18T05:27:39;-1.20;94.70
2024;DHT22;1016;48.770;9.154;2022-12-18T05:30:05;-1.30;94.30
2024;DHT22;1016;48.770;9.154;2022-12-18T05:32:30;-1.40;94.30
2024;DHT22;1016;48.770;9.154;2022-12-18T05:34:56;-1.50;94.40
2024;DHT22;1016;48.770;9.154;2022-12-18T05:37:22;-1.60;94.50
2024;DHT22;1016;48.770;9.154;2022-12-18T05:39:48;-1.70;94.50
2024;DHT22;1016;48.770;9.154;2022-12-18T05:42:13;-1.80;94.70
2024;DHT22;1016;48.770;9.154;2022-12-18T05:44:39;-1.80;94.70
2024;DHT22;1016;48.770;9.154;2022-12-18T05:49:30;-1.90;94.70
2024;DHT22;1016;48.770;9.154;2022-12-18T05:51:55;-2.00;95.00
2024;DHT22;1016;48.770;9.154;2022-12-18T05:54:21;-2.10;94.90
2024;DHT22;1016;48.770;9.154;2022-12-18T05:56:47;-2.10;95.00
2024;DHT22;1016;48.770;9.154;2022-12-18T05:59:12;-2.10;95.10
2024;DHT22;1016;48.770;9.154;2022-12-18T06:01:38;-2.20;95.10
2024;DHT22;1016;48.770;9.154;2022-12-18T06:04:03;-2.20;95.90
2024;DHT22;1016;48.770;9.154;2022-12-18T06:06:29;-2.40;94.90
2024;DHT22;1016;48.770;9.154;2022-12-18T06:08:55;-2.40;96.60
2024;DHT22;1016;48.770;9.154;2022-12-18T06:11:23;-2.30;95.20
2024;DHT22;1016;48.770;9.154;2022-12-18T06:13:50;-2.40;95.30
2024;DHT22;1016;48.770;9.154;2022-12-18T06:16:16;-2.40;95.50
2024;DHT22;1016;48.770;9.154;2022-12-18T06:18:41;-2.40;95.60
2024;DHT22;1016;48.770;9.154;2022-12-18T06:21:07;-2.40;95.60
2024;DHT22;1016;48.770;9.154;2022-12-18T06:23:33;-2.40;95.80
2024;DHT22;1016;48.770;9.154;2022-12-18T06:25:58;-2.40;95.80
2024;DHT22;1016;48.770;9.154;2022-12-18T06:28:24;-2.40;96.00
2024;DHT22;1016;48.770;9.154;2022-12-18T06:30:49;-2.40;96.00
2024;DHT22;1016;48.770;9.154;2022-12-18T06:33:16;-2.50;95.90
2024;DHT22;1016;48.770;9.154;2022-12-18T06:35:42;-2.40;96.00
2024;DHT22;1016;48.770;9.154;2022-12-18T06:38:07;-2.40;96.20
2024;DHT22;1016;48.770;9.154;2022-12-18T06:40:33;-2.50;96.20
2024;DHT22;1016;48.770;9.154;2022-12-18T06:42:59;-2.50;96.10
2024;DHT22;1016;48.770;9.154;2022-12-18T06:45:24;-2.60;95.90
2024;DHT22;1016;48.770;9.154;2022-12-18T06:50:16;-2.70;95.30
2024;DHT22;1016;48.770;9.154;2022-12-18T06:52:42;-2.90;95.70
2024;DHT22;1016;48.770;9.154;2022-12-18T06:55:10;-2.90;95.80
2024;DHT22;1016;48.770;9.154;2022-12-18T06:57:36;-3.00;96.10
2024;DHT22;1016;48.770;9.154;2022-12-18T07:00:03;-3.00;96.40
2024;DHT22;1016;48.770;9.154;2022-12-18T07:02:29;-2.90;96.70
2024;DHT22;1016;48.770;9.154;2022-12-18T07:04:55;-2.90;96.90
2024;DHT22;1016;48.770;9.154;2022-12-18T07:07:20;-2.80;97.20
2024;DHT22;1016;48.770;9.154;2022-12-18T07:09:46;-2.80;97.30
2024;DHT22;1016;48.770;9.154;2022-12-18T07:12:11;-2.70;97.30
2024;DHT22;1016;48.770;9.154;2022-12-18T07:14:37;-2.70;97.20
2024;DHT22;1016;48.770;9.154;2022-12-18T07:17:02;-2.70;97.40
2024;DHT22;1016;48.770;9.154;2022-12-18T07:19:29;-2.60;97.70
2024;DHT22;1016;48.770;9.154;2022-12-18T07:21:54;-2.60;97.80
2024;DHT22;1016;48.770;9.154;2022-12-18T07:24:20;-2.60;97.50
2024;DHT22;1016;48.770;9.154;2022-12-18T07:26:46;-2.60;97.40
2024;DHT22;1016;48.770;9.154;2022-12-18T07:29:11;-2.60;97.50
2024;DHT22;1016;48.770;9.154;2022-12-18T07:31:37;-2.60;97.50
2024;DHT22;1016;48.770;9.154;2022-12-18T07:34:02;-2.60;97.20
2024;DHT22;1016;48.770;9.154;2022-12-18T07:36:28;-2.60;97.20
2024;DHT22;1016;48.770;9.154;2022-12-18T07:38:53;-2.70;97.00
2024;DHT22;1016;48.770;9.154;2022-12-18T07:41:20;-2.80;96.70
2024;DHT22;1016;48.770;9.154;2022-12-18T07:43:46;-2.90;96.50
2024;DHT22;1016;48.770;9.154;2022-12-18T07:46:13;-3.00;97.00
2024;DHT22;1016;48.770;9.154;2022-12-18T07:48:43;-3.00;97.30
2024;DHT22;1016;48.770;9.154;2022-12-18T07:51:09;-3.00;97.60
2024;DHT22;1016;48.770;9.154;2022-12-18T07:53:37;-3.00;97.80
2024;DHT22;1016;48.770;9.154;2022-12-18T07:56:06;-3.00;97.90
2024;DHT22;1016;48.770;9.154;2022-12-18T07:58:32;-3.10;98.00
2024;DHT22;1016;48.770;9.154;2022-12-18T08:01:06;-3.10;98.40
2024;DHT22;1016;48.770;9.154;2022-12-18T08:03:32;-3.00;98.80
2024;DHT22;1016;48.770;9.154;2022-12-18T08:05:59;-2.90;99.10
2024;DHT22;1016;48.770;9.154;2022-12-18T08:08:25;-2.80;99.50
2024;DHT22;1016;48.770;9.154;2022-12-18T08:10:50;-2.60;99.70
2024;DHT22;1016;48.770;9.154;2022-12-18T08:13:16;-2.40;99.90
2024;DHT22;1016;48.770;9.154;2022-12-18T08:15:41;-2.40;99.90
2024;DHT22;1016;48.770;9.154;2022-12-18T08:18:07;-2.30;99.90
2024;DHT22;1016;48.770;9.154;2022-12-18T08:20:32;-2.20;99.90
2024;DHT22;1016;48.770;9.154;2022-12-18T08:22:58;-2.20;99.90
2024;DHT22;1016;48.770;9.154;2022-12-18T08:25:23;-2.10;99.90
2024;DHT22;1016;48.770;9.154;2022-12-18T08:27:49;-2.00;99.90
2024;DHT22;1016;48.770;9.154;2022-12-18T08:30:14;-1.90;99.90
2024;DHT22;1016;48.770;9.154;2022-12-18T08:32:40;-1.90;99.90
2024;DHT22;1016;48.770;9.154;2022-12-18T08:35:06;-1.80;99.90
2024;DHT22;1016;48.770;9.154;2022-12-18T08:37:31;-1.70;99.90
2024;DHT22;1016;48.770;9.154;2022-12-18T08:39:57;-1.70;99.90
2024;DHT22;1016;48.770;9.154;2022-12-18T08:42:22;-1.70;99.90
2024;DHT22;1016;48.770;9.154;2022-12-18T08:45:07;-1.60;99.90
2024;DHT22;1016;48.770;9.154;2022-12-18T08:47:32;-1.60;99.90
2024;DHT22;1016;48.770;9.154;2022-12-18T08:49:58;-1.60;99.90
2024;DHT22;1016;48.770;9.154;2022-12-18T08:52:23;-1.60;99.90
2024;DHT22;1016;48.770;9.154;2022-12-18T08:54:49;-1.70;99.90
2024;DHT22;1016;48.770;9.154;2022-12-18T08:57:15;-1.70;99.90
2024;DHT22;1016;48.770;9.154;2022-12-18T08:59:41;-1.70;99.90
2024;DHT22;1016;48.770;9.154;2022-12-18T09:02:09;-1.70;99.90
2024;DHT22;1016;48.770;9.154;2022-12-18T09:04:35;-1.70;99.80
2024;DHT22;1016;48.770;9.154;2022-12-18T09:07:00;-1.60;99.90
2024;DHT22;1016;48.770;9.154;2022-12-18T09:09:26;-1.50;99.70
2024;DHT22;1016;48.770;9.154;2022-12-18T09:11:52;-1.50;99.60
2024;DHT22;1016;48.770;9.154;2022-12-18T09:14:17;-1.50;99.90
2024;DHT22;1016;48.770;9.154;2022-12-18T09:16:43;-1.40;99.60
2024;DHT22;1016;48.770;9.154;2022-12-18T09:19:09;-1.40;99.70
2024;DHT22;1016;48.770;9.154;2022-12-18T09:21:35;-1.40;99.90
2024;DHT22;1016;48.770;9.154;2022-12-18T09:24:08;-1.40;99.90
2024;DHT22;1016;48.770;9.154;2022-12-18T09:26:36;-1.30;99.90
2024;DHT22;1016;48.770;9.154;2022-12-18T09:29:02;-1.30;99.90
2024;DHT22;1016;48.770;9.154;2022-12-18T09:31:28;-1.30;99.90
2024;DHT22;1016;48.770;9.154;2022-12-18T09:33:55;-1.20;99.90
2024;DHT22;1016;48.770;9.154;2022-12-18T09:36:21;-1.20;99.90
2024;DHT22;1016;48.770;9.154;2022-12-18T09:38:47;-1.10;99.90
2024;DHT22;1016;48.770;9.154;2022-12-18T09:41:41;-1.10;99.90
2024;DHT22;1016;48.770;9.154;2022-12-18T09:44:25;-1.10;99.90
2024;DHT22;1016;48.770;9.154;2022-12-18T09:47:09;-1.00;99.90
2024;DHT22;1016;48.770;9.154;2022-12-18T09:49:43;-1.00;99.90
2024;DHT22;1016;48.770;9.154;2022-12-18T09:52:11;-1.00;99.90
2024;DHT22;1016;48.770;9.154;2022-12-18T09:54:42;-1.00;99.90
2024;DHT22;1016;48.770;9.154;2022-12-18T09:57:31;-1.00;99.90
2024;DHT22;1016;48.770;9.154;2022-12-18T10:00:08;-1.00;99.90
2024;DHT22;1016;48.770;9.154;2022-12-18T10:02:36;-0.90;99.90
2024;DHT22;1016;48.770;9.154;2022-12-18T10:05:13;-0.80;99.90
2024;DHT22;1016;48.770;9.154;2022-12-18T10:07:55;-0.70;99.90
2024;DHT22;1016;48.770;9.154;2022-12-18T10:10:40;-0.60;99.90
2024;DHT22;1016;48.770;9.154;2022-12-18T10:21:10;-0.40;99.90
2024;DHT22;1016;48.770;9.154;2022-12-18T10:26:22;-0.20;99.90
2024;DHT22;1016;48.770;9.154;2022-12-18T10:28:49;-0.20;99.90
2024;DHT22;1016;48.770;9.154;2022-12-18T10:31:21;-0.10;99.90
2024;DHT22;1016;48.770;9.154;2022-12-18T10:33:47;-0.10;99.90
2024;DHT22;1016;48.770;9.154;2022-12-18T10:36:13;0.00;99.90
2024;DHT22;1016;48.770;9.154;2022-12-18T10:38:39;0.00;99.90
2024;DHT22;1016;48.770;9.154;2022-12-18T10:43:44;0.10;99.90
2024;DHT22;1016;48.770;9.154;2022-12-18T10:51:06;0.30;99.90
2024;DHT22;1016;48.770;9.154;2022-12-18T10:53:34;0.30;99.90
2024;DHT22;1016;48.770;9.154;2022-12-18T10:56:00;0.30;99.90
2024;DHT22;1016;48.770;9.154;2022-12-18T11:01:17;0.30;99.90
2024;DHT22;1016;48.770;9.154;2022-12-18T11:04:08;0.40;99.90
2024;DHT22;1016;48.770;9.154;2022-12-18T11:06:32;0.50;99.90
2024;DHT22;1016;48.770;9.154;2022-12-18T11:11:27;0.70;99.90
2024;DHT22;1016;48.770;9.154;2022-12-18T11:14:18;0.70;99.90
2024;DHT22;1016;48.770;9.154;2022-12-18T11:16:46;0.70;99.90
2024;DHT22;1016;48.770;9.154;2022-12-18T11:19:20;0.60;99.90
2024;DHT22;1016;48.770;9.154;2022-12-18T11:21:47;0.60;99.90
2024;DHT22;1016;48.770;9.154;2022-12-18T11:26:52;0.80;99.90
2024;DHT22;1016;48.770;9.154;2022-12-18T11:29:24;0.80;99.90
2024;DHT22;1016;48.770;9.154;2022-12-18T11:32:12;0.90;99.90
2024;DHT22;1016;48.770;9.154;2022-12-18T11:34:48;1.00;99.90
2024;DHT22;1016;48.770;9.154;2022-12-18T11:37:16;1.00;99.90
2024;DHT22;1016;48.770;9.154;2022-12-18T11:39:54;1.00;99.90
2024;DHT22;1016;48.770;9.154;2022-12-18T11:47:55;1.20;99.90
2024;DHT22;1016;48.770;9.154;2022-12-18T11:50:25;1.20;99.90
2024;DHT22;1016;48.770;9.154;2022-12-18T11:52:51;1.20;99.90
2024;DHT22;1016;48.770;9.154;2022-12-18T11:55:39;1.30;99.90
2024;DHT22;1016;48.770;9.154;2022-12-18T12:15:36;1.60;99.90
2024;DHT22;1016;48.770;9.154;2022-12-18T12:18:33;1.60;99.90
2024;DHT22;1016;48.770;9.154;2022-12-18T12:21:20;1.60;99.90
2024;DHT22;1016;48.770;9.154;2022-12-18T12:26:50;1.60;99.90
2024;DHT22;1016;48.770;9.154;2022-12-18T12:29:36;1.70;99.90
2024;DHT22;1016;48.770;9.154;2022-12-18T12:32:27;1.70;99.90
2024;DHT22;1016;48.770;9.154;2022-12-18T12:38:08;1.90;99.90
2024;DHT22;1016;48.770;9.154;2022-12-18T12:40:41;2.00;99.90
2024;DHT22;1016;48.770;9.154;2022-12-18T12:45:56;2.10;99.90
2024;DHT22;1016;48.770;9.154;2022-12-18T12:48:41;2.10;99.90
2024;DHT22;1016;48.770;9.154;2022-12-18T12:51:14;2.20;99.90
2024;DHT22;1016;48.770;9.154;2022-12-18T12:53:41;2.20;99.90
2024;DHT22;1016;48.770;9.154;2022-12-18T12:56:09;2.30;99.90
2024;DHT22;1016;48.770;9.154;2022-12-18T12:58:46;2.30;99.90
2024;DHT22;1016;48.770;9.154;2022-12-18T13:01:39;2.40;99.90
2024;DHT22;1016;48.770;9.154;2022-12-18T13:04:33;2.40;99.90
2024;DHT22;1016;48.770;9.154;2022-12-18T13:07:20;2.50;99.90
2024;DHT22;1016;48.770;9.154;2022-12-18T13:15:49;2.50;99.90
2024;DHT22;1016;48.770;9.154;2022-12-18T13:18:28;2.50;99.90
2024;DHT22;1016;48.770;9.154;2022-12-18T13:25:59;2.50;99.90
2024;DHT22;1016;48.770;9.154;2022-12-18T13:28:49;2.40;99.90
2024;DHT22;1016;48.770;9.154;2022-12-18T13:36:44;2.60;99.90
2024;DHT22;1016;48.770;9.154;2022-12-18T13:41:39;2.60;99.90
2024;DHT22;1016;48.770;9.154;2022-12-18T13:46:55;2.70;99.90
2024;DHT22;1016;48.770;9.154;2022-12-18T13:49:41;2.70;99.90
2024;DHT22;1016;48.770;9.154;2022-12-18T13:52:22;2.70;99.90
2024;DHT22;1016;48.770;9.154;2022-12-18T13:54:52;2.70;99.90
2024;DHT22;1016;48.770;9.154;2022-12-18T13:59:52;2.70;99.90
2024;DHT22;1016;48.770;9.154;2022-12-18T14:02:21;2.70;99.90
2024;DHT22;1016;48.770;9.154;2022-12-18T14:04:48;2.70;99.90
2024;DHT22;1016;48.770;9.154;2022-12-18T14:07:22;2.70;99.90
2024;DHT22;1016;48.770;9.154;2022-12-18T14:10:11;2.80;99.90
2024;DHT22;1016;48.770;9.154;2022-12-18T14:12:38;2.80;99.90
2024;DHT22;1016;48.770;9.154;2022-12-18T14:17:59;2.80;99.90
2024;DHT22;1016;48.770;9.154;2022-12-18T14:20:27;2.70;99.90
2024;DHT22;1016;48.770;9.154;2022-12-18T14:22:54;2.70;99.90
2024;DHT22;1016;48.770;9.154;2022-12-18T14:25:23;2.70;99.90
2024;DHT22;1016;48.770;9.154;2022-12-18T14:30:30;2.70;99.90
2024;DHT22;1016;48.770;9.154;2022-12-18T14:33:04;2.70;99.90
2024;DHT22;1016;48.770;9.154;2022-12-18T14:35:31;2.70;99.90
2024;DHT22;1016;48.770;9.154;2022-12-18T14:40:41;2.70;99.90
2024;DHT22;1016;48.770;9.154;2022-12-18T14:43:10;2.60;99.90
2024;DHT22;1016;48.770;9.154;2022-12-18T14:45:36;2.60;99.90
2024;DHT22;1016;48.770;9.154;2022-12-18T14:48:19;2.60;99.90
2024;DHT22;1016;48.770;9.154;2022-12-18T14:51:00;2.50;99.90
2024;DHT22;1016;48.770;9.154;2022-12-18T14:53:39;2.50;99.90
2024;DHT22;1016;48.770;9.154;2022-12-18T14:56:18;2.40;99.90
2024;DHT22;1016;48.770;9.154;2022-12-18T14:58:49;2.40;99.90
2024;DHT22;1016;48.770;9.154;2022-12-18T15:01:25;2.40;99.90
2024;DHT22;1016;48.770;9.154;2022-12-18T15:03:53;2.30;99.90
2024;DHT22;1016;48.770;9.154;2022-12-18T15:08:51;2.30;99.90
2024;DHT22;1016;48.770;9.154;2022-12-18T15:14:00;2.20;99.90
2024;DHT22;1016;48.770;9.154;2022-12-18T15:16:26;2.10;99.90
2024;DHT22;1016;48.770;9.154;2022-12-18T15:18:52;2.10;99.90
2024;DHT22;1016;48.770;9.154;2022-12-18T15:21:19;2.10;99.90
2024;DHT22;1016;48.770;9.154;2022-12-18T15:23:51;2.10;99.90
2024;DHT22;1016;48.770;9.154;2022-12-18T15:26:20;2.00;99.90
2024;DHT22;1016;48.770;9.154;2022-12-18T15:28:54;2.10;99.90
2024;DHT22;1016;48.770;9.154;2022-12-18T15:31:28;2.00;99.90
2024;DHT22;1016;48.770;9.154;2022-12-18T15:36:22;2.00;99.90
2024;DHT22;1016;48.770;9.154;2022-12-18T15:38:52;2.00;99.90
2024;DHT22;1016;48.770;9.154;2022-12-18T15:41:19;2.00;99.90
2024;DHT22;1016;48.770;9.154;2022-12-18T15:43:48;1.90;99.90
2024;DHT22;1016;48.770;9.154;2022-12-18T15:46:16;1.90;99.90
2024;DHT22;1016;48.770;9.154;2022-12-18T15:51:21;1.80;99.90
2024;DHT22;1016;48.770;9.154;2022-12-18T15:53:49;1.80;99.90
2024;DHT22;1016;48.770;9.154;2022-12-18T15:56:16;1.80;99.90
2024;DHT22;1016;48.770;9.154;2022-12-18T15:59:01;1.80;99.90
2024;DHT22;1016;48.770;9.154;2022-12-18T16:01:29;1.80;99.90
2024;DHT22;1016;48.770;9.154;2022-12-18T16:03:55;1.80;99.90
2024;DHT22;1016;48.770;9.154;2022-12-18T16:06:22;1.80;99.90
2024;DHT22;1016;48.770;9.154;2022-12-18T16:08:48;1.80;99.90
2024;DHT22;1016;48.770;9.154;2022-12-18T16:14:40;1.60;99.90
2024;DHT22;1016;48.770;9.154;2022-12-18T16:17:00;1.50;99.90
2024;DHT22;1016;48.770;9.154;2022-12-18T16:19:27;1.40;99.90
2024;DHT22;1016;48.770;9.154;2022-12-18T16:21:55;1.40;99.90
2024;DHT22;1016;48.770;9.154;2022-12-18T16:24:27;1.40;99.90
2024;DHT22;1016;48.770;9.154;2022-12-18T16:26:53;1.40;99.90
2024;DHT22;1016;48.770;9.154;2022-12-18T16:29:20;1.40;99.90
2024;DHT22;1016;48.770;9.154;2022-12-18T16:31:50;1.40;99.90
2024;DHT22;1016;48.770;9.154;2022-12-18T16:34:25;1.40;99.90
2024;DHT22;1016;48.770;9.154;2022-12-18T16:36:54;1.40;99.90
2024;DHT22;1016;48.770;9.154;2022-12-18T16:39:20;1.50;99.90
2024;DHT22;1016;48.770;9.154;2022-12-18T16:41:46;1.50;99.90
2024;DHT22;1016;48.770;9.154;2022-12-18T16:44:13;1.40;99.90
2024;DHT22;1016;48.770;9.154;2022-12-18T16:46:39;1.40;99.90
2024;DHT22;1016;48.770;9.154;2022-12-18T16:49:05;1.50;99.90
2024;DHT22;1016;48.770;9.154;2022-12-18T16:51:34;1.50;99.90
2024;DHT22;1016;48.770;9.154;2022-12-18T16:54:00;1.50;99.90
2024;DHT22;1016;48.770;9.154;2022-12-18T16:56:26;1.50;99.90
2024;DHT22;1016;48.770;9.154;2022-12-18T16:58:53;1.50;99.90
2024;DHT22;1016;48.770;9.154;2022-12-18T17:01:19;1.60;99.90
2024;DHT22;1016;48.770;9.154;2022-12-18T17:03:51;1.60;99.90
2024;DHT22;1016;48.770;9.154;2022-12-18T17:06:17;1.60;99.90
2024;DHT22;1016;48.770;9.154;2022-12-18T17:08:43;1.60;99.90
2024;DHT22;1016;48.770;9.154;2022-12-18T17:11:08;1.50;99.90
2024;DHT22;1016;48.770;9.154;2022-12-18T17:13:34;1.50;99.90
2024;DHT22;1016;48.770;9.154;2022-12-18T17:16:03;1.50;99.90
2024;DHT22;1016;48.770;9.154;2022-12-18T17:18:29;1.50;99.90
2024;DHT22;1016;48.770;9.154;2022-12-18T17:20:59;1.50;99.90
2024;DHT22;1016;48.770;9.154;2022-12-18T17:23:25;1.40;99.90
2024;DHT22;1016;48.770;9.154;2022-12-18T17:25:57;1.40;99.90
2024;DHT22;1016;48.770;9.154;2022-12-18T17:28:26;1.50;99.90
2024;DHT22;1016;48.770;9.154;2022-12-18T17:30:53;1.50;99.90
2024;DHT22;1016;48.770;9.154;2022-12-18T17:33:19;1.50;99.90
2024;DHT22;1016;48.770;9.154;2022-12-18T17:35:44;1.50;99.90
2024;DHT22;1016;48.770;9.154;2022-12-18T17:38:10;1.50;99.90
2024;DHT22;1016;48.770;9.154;2022-12-18T17:40:35;1.50;99.90
2024;DHT22;1016;48.770;9.154;2022-12-18T17:43:01;1.50;99.90
2024;DHT22;1016;48.770;9.154;2022-12-18T17:45:26;1.40;99.90
2024;DHT22;1016;48.770;9.154;2022-12-18T17:47:52;1.40;99.90
2024;DHT22;1016;48.770;9.154;2022-12-18T17:50:18;1.50;99.90
2024;DHT22;1016;48.770;9.154;2022-12-18T17:52:43;1.50;99.90
2024;DHT22;1016;48.770;9.154;2022-12-18T17:55:09;1.50;99.90
2024;DHT22;1016;48.770;9.154;2022-12-18T17:57:35;1.50;99.90
2024;DHT22;1016;48.770;9.154;2022-12-18T18:00:02;1.40;99.90
2024;DHT22;1016;48.770;9.154;2022-12-18T18:02:27;1.40;99.90
2024;DHT22;1016;48.770;9.154;2022-12-18T18:04:53;1.40;99.90
2024;DHT22;1016;48.770;9.154;2022-12-18T18:07:18;1.30;99.90
2024;DHT22;1016;48.770;9.154;2022-12-18T18:09:44;1.30;99.90
2024;DHT22;1016;48.770;9.154;2022-12-18T18:12:10;1.30;99.90
2024;DHT22;1016;48.770;9.154;2022-12-18T18:14:55;1.30;99.90
2024;DHT22;1016;48.770;9.154;2022-12-18T18:17:20;1.30;99.90
2024;DHT22;1016;48.770;9.154;2022-12-18T18:19:46;1.30;99.90
2024;DHT22;1016;48.770;9.154;2022-12-18T18:22:11;1.30;99.90
2024;DHT22;1016;48.770;9.154;2022-12-18T18:24:37;1.20;99.90
2024;DHT22;1016;48.770;9.154;2022-12-18T18:27:02;1.30;99.90
2024;DHT22;1016;48.770;9.154;2022-12-18T18:29:28;1.30;99.90
2024;DHT22;1016;48.770;9.154;2022-12-18T18:31:57;1.30;99.90
2024;DHT22;1016;48.770;9.154;2022-12-18T18:34:25;1.40;99.90
2024;DHT22;1016;48.770;9.154;2022-12-18T18:36:50;1.40;99.90
2024;DHT22;1016;48.770;9.154;2022-12-18T18:39:16;1.40;99.90